Colby, WI

4:32 AM CDT on April 27, 2015 (GMT -0500)
WIDOT | | Change Station
CLOSE
Current Station
Personal Weather Station
Location: Abbotsford, WI
Elevation: 1400 ft
Nearby Weather Stations

Elev 1400 ft 44.95 °N, 90.27 °W | Updated 40 minutes ago

Clear
Clear
35 °F
Feels Like 35 °F
N
0
Wind Variable Wind from NW
Gusts 0.0 mph

Today
High -- | Low -- °F
--% Chance of Precip.
Yesterday
High -- | Low -- °F
Precip. -- in
5:57 AM 8:01 PM
Waxing Gibbous, 63% visible
Pressure 30.14 in
Visibility 10.0 miles
Clouds Clear
Windchill 35 °F
Dew Point 28 °F
Humidity 73%
Rainfall in
Snow Depth Not available.
UV 0 out of 12
Pollen 9.40 out of 12
Air Quality Not available.
Flu Activity Local Activity
METAR KMDZ 270915Z AUTO 00000KT 10SM CLR 01/M03 A3014 RMK AO2 T00071027

More Conditions Fewer Conditions

Pressure 30.14 in
Visibility 10.0 miles
Clouds Clear
Windchill 35 °F
Dew Point 28 °F
Humidity 73%
Rainfall in
Snow Depth Not available.
UV 0 out of 12
Pollen 9.40 out of 12
Air Quality Not available.
Flu Activity Local Activity
METAR KMDZ 270915Z AUTO 00000KT 10SM CLR 01/M03 A3014 RMK AO2 T00071027

More Conditions Fewer Conditions

10-Day Weather Forecast

Almanac

Astronomy

Apr. 27, 2015 Rise Set
Actual Time
Civil Twilight
Nautical Twilight
Astronomical Twilight
Moon
Length of Visible Light
Length of Day
Tomorrow will be .
, % of the Moon is Illuminated

Today's Extremes

State Highs State Lows

Community

WunderPhotos

Upload Photos

1,817,278 photos uploaded!

WunderBlogs® & News

Nearby

Air Quality

  Air Quality AQ Index Pollutant
Not available.

Snow Depth

Station Depth Elevation

Earthquake Activity

City Distance Mag. Time & Date
Minimum magnitude displayed is 2.5.

Coastal Water Temperatures

Place Temperature

Stations

Nearby Weather Stations

Station Location Temp. Windchill Dew Point Humidity Wind Precip. Elev Updated Type